createdAt,value
2023-03-05T00:03:25.164Z,100992.19
2023-03-05T00:07:26.605Z,100997.94
2023-03-05T00:11:30.118Z,100992.00
2023-03-05T00:15:31.695Z,100984.75
2023-03-05T00:19:33.146Z,100992.94
2023-03-05T00:23:34.589Z,100984.03
2023-03-05T00:27:35.997Z,100975.69
2023-03-05T00:31:37.990Z,100965.63
2023-03-05T00:35:41.383Z,100956.97
2023-03-05T00:39:42.882Z,100958.47
2023-03-05T00:43:44.329Z,100949.84
2023-03-05T00:47:45.753Z,100935.25
2023-03-05T00:51:47.249Z,100933.56
2023-03-05T00:55:48.861Z,100924.69
2023-03-05T00:59:50.328Z,100924.53
2023-03-05T01:03:52.040Z,100915.88
2023-03-05T01:07:54.470Z,100904.19
2023-03-05T01:11:56.302Z,100895.56
2023-03-05T01:15:57.785Z,100900.25
2023-03-05T01:19:59.283Z,100902.88
2023-03-05T01:24:00.737Z,100891.03
2023-03-05T01:28:02.173Z,100890.38
2023-03-05T01:32:03.728Z,100883.31
2023-03-05T01:36:14.810Z,100876.47
2023-03-05T01:40:19.770Z,100884.00
2023-03-05T01:44:27.471Z,100874.88
2023-03-05T01:48:28.999Z,100874.56
2023-03-05T01:52:33.972Z,100872.97
2023-03-05T01:56:36.670Z,100869.50
2023-03-05T02:00:43.910Z,100859.59
2023-03-05T02:04:50.850Z,100873.97
2023-03-05T02:08:52.414Z,100867.41
2023-03-05T02:12:58.514Z,100865.81
2023-03-05T02:17:00.300Z,100865.56
2023-03-05T02:21:06.575Z,100858.47
2023-03-05T02:25:17.155Z,100853.81
2023-03-05T02:29:19.937Z,100842.06
2023-03-05T02:33:22.593Z,100846.44
2023-03-05T02:37:24.026Z,100846.63
2023-03-05T02:41:26.732Z,100833.34
2023-03-05T02:45:28.414Z,100838.59
2023-03-05T02:49:30.013Z,100827.81
2023-03-05T02:53:31.436Z,100822.03
2023-03-05T02:57:32.864Z,100821.72
2023-03-05T03:01:34.536Z,100817.25
2023-03-05T03:05:36.866Z,100818.97
2023-03-05T03:09:38.952Z,100811.66
2023-03-05T03:13:41.171Z,100808.78
2023-03-05T03:17:42.619Z,100807.06
2023-03-05T03:21:44.055Z,100795.69
2023-03-05T03:25:45.489Z,100792.00
2023-03-05T03:29:46.919Z,100781.69
2023-03-05T03:33:48.388Z,100795.72
2023-03-05T03:37:49.850Z,100775.38
2023-03-05T03:41:53.213Z,100769.66
2023-03-05T03:45:54.710Z,100770.63
2023-03-05T03:49:56.687Z,100766.84
2023-03-05T03:53:58.598Z,100768.63
2023-03-05T03:58:00.249Z,100767.72
2023-03-05T04:02:01.754Z,100756.81
2023-03-05T04:06:04.432Z,100753.38
2023-03-05T04:10:06.329Z,100753.41
2023-03-05T04:14:07.774Z,100736.81
2023-03-05T04:18:10.424Z,100742.06
2023-03-05T04:22:14.360Z,100741.25
2023-03-05T04:26:15.760Z,100734.00
2023-03-05T04:30:17.640Z,100733.13
2023-03-05T04:34:19.116Z,100725.38
2023-03-05T04:38:20.604Z,100729.31
2023-03-05T04:42:22.126Z,100725.84
2023-03-05T04:46:23.559Z,100728.63
2023-03-05T04:50:25.903Z,100726.47
2023-03-05T04:54:28.109Z,100718.38
2023-03-05T04:58:29.550Z,100744.16
2023-03-05T05:02:31.025Z,100721.75
2023-03-05T05:06:32.496Z,100716.38
2023-03-05T05:10:33.930Z,100718.47
2023-03-05T05:14:35.397Z,100719.56
2023-03-05T05:18:36.858Z,100723.84
2023-03-05T05:22:38.512Z,100722.34
2023-03-05T05:26:41.097Z,100719.84
2023-03-05T05:30:42.504Z,100713.97
2023-03-05T05:34:43.943Z,100712.47
2023-03-05T05:38:45.867Z,100709.69
2023-03-05T05:42:47.305Z,100717.25
2023-03-05T05:46:48.868Z,100720.94
2023-03-05T05:50:50.292Z,100713.28
2023-03-05T05:54:51.811Z,100714.19
2023-03-05T05:58:53.925Z,100718.69
2023-03-05T06:02:55.372Z,100718.59
2023-03-05T06:06:58.267Z,100714.31
2023-03-05T06:10:59.654Z,100715.13
2023-03-05T06:15:01.136Z,100716.88
2023-03-05T06:19:04.583Z,100716.00
2023-03-05T06:23:07.142Z,100717.44
2023-03-05T06:27:08.595Z,100713.84
2023-03-05T06:31:13.521Z,100706.75
2023-03-05T06:35:15.048Z,100715.69
2023-03-05T06:39:16.483Z,100699.59
2023-03-05T06:43:18.196Z,100704.69
2023-03-05T06:47:19.660Z,100704.81
2023-03-05T06:51:24.786Z,100704.03
2023-03-05T06:55:26.264Z,100713.63
2023-03-05T06:59:28.073Z,100705.19
2023-03-05T07:03:29.523Z,100707.53
2023-03-05T07:07:31.104Z,100707.81
2023-03-05T07:11:34.100Z,100706.38
2023-03-05T07:15:38.883Z,100705.41
2023-03-05T07:19:40.741Z,100719.13
2023-03-05T07:23:42.189Z,100715.97
2023-03-05T07:27:43.604Z,100710.84
2023-03-05T07:31:45.014Z,100708.91
2023-03-05T07:35:46.465Z,100720.25
2023-03-05T07:39:48.025Z,100714.69
2023-03-05T07:43:52.849Z,100703.63
2023-03-05T07:47:56.055Z,100701.63
2023-03-05T07:51:57.488Z,100692.53
2023-03-05T07:55:58.951Z,100702.84
2023-03-05T08:00:00.346Z,100700.50
2023-03-05T08:04:03.712Z,100698.91
2023-03-05T08:08:05.525Z,100693.72
2023-03-05T08:12:07.454Z,100698.22
2023-03-05T08:16:12.440Z,100700.88
2023-03-05T08:20:14.015Z,100708.38
2023-03-05T08:24:15.560Z,100703.06
2023-03-05T08:28:19.602Z,100695.31
2023-03-05T08:32:21.339Z,100691.50
2023-03-05T08:36:22.797Z,100690.53
2023-03-05T08:40:24.345Z,100679.69
2023-03-05T08:44:25.835Z,100680.09
2023-03-05T08:48:27.792Z,100669.06
2023-03-05T08:52:29.354Z,100668.53
2023-03-05T08:56:31.416Z,100663.59
2023-03-05T09:00:33.015Z,100662.13
2023-03-05T09:04:34.452Z,100656.16
2023-03-05T09:08:36.301Z,100656.66
2023-03-05T09:12:37.849Z,100652.25
2023-03-05T09:16:40.939Z,100652.53
2023-03-05T09:20:42.479Z,100653.53
2023-03-05T09:24:44.103Z,100641.03
2023-03-05T09:28:45.867Z,100638.88
2023-03-05T09:32:47.429Z,100645.78
2023-03-05T09:36:48.917Z,100640.69
2023-03-05T09:45:41.978Z,100637.84
2023-03-05T09:49:54.316Z,100641.38
2023-03-05T09:54:10.828Z,100642.84
2023-03-05T09:58:18.821Z,100629.31
2023-03-05T10:02:33.958Z,100618.38
2023-03-05T10:06:41.766Z,100625.31
2023-03-05T10:10:54.104Z,100615.91
2023-03-05T10:14:56.090Z,100615.41
2023-03-05T10:19:29.999Z,100619.69
2023-03-05T10:23:34.156Z,100610.03
2023-03-05T10:27:54.182Z,100613.16
2023-03-05T10:32:36.337Z,100601.84
2023-03-05T10:36:47.278Z,100601.00
2023-03-05T10:40:52.774Z,100589.44
2023-03-05T10:44:59.720Z,100582.13
2023-03-05T10:49:26.760Z,100568.03
2023-03-05T10:53:35.066Z,100597.16
2023-03-05T10:57:36.505Z,100599.28
2023-03-05T11:01:38.228Z,100579.75
2023-03-05T11:05:58.795Z,100581.03
2023-03-05T11:10:00.227Z,100581.00
2023-03-05T11:14:03.868Z,100562.78
2023-03-05T11:18:07.482Z,100568.59
2023-03-05T11:22:16.360Z,100557.13
2023-03-05T11:26:23.187Z,100563.09
2023-03-05T11:30:34.558Z,100552.41
2023-03-05T11:34:36.158Z,100554.19
2023-03-05T11:39:07.532Z,100557.53
2023-03-05T11:43:16.079Z,100552.31
2023-03-05T11:47:44.747Z,100545.75
2023-03-05T11:51:57.793Z,100537.41
2023-03-05T11:56:05.317Z,100544.38
2023-03-05T12:00:12.254Z,100530.44
2023-03-05T12:04:14.640Z,100530.41
2023-03-05T12:08:22.950Z,100526.97
2023-03-05T12:12:51.466Z,100527.13
2023-03-05T12:17:10.205Z,100523.25
2023-03-05T12:21:29.944Z,100522.56
2023-03-05T12:25:34.957Z,100508.91
2023-03-05T12:29:51.737Z,100500.47
2023-03-05T12:33:53.240Z,100488.31
2023-03-05T12:37:54.711Z,100499.44
2023-03-05T12:41:56.555Z,100490.78
2023-03-05T12:46:29.377Z,100492.38
2023-03-05T12:50:32.802Z,100483.50
2023-03-05T12:54:42.041Z,100474.78
2023-03-05T12:58:51.265Z,100474.78
2023-03-05T13:02:58.683Z,100490.09
2023-03-05T13:07:06.038Z,100488.31
2023-03-05T13:11:16.822Z,100498.16
2023-03-05T13:15:18.664Z,100488.16
2023-03-05T13:19:21.481Z,100483.19
2023-03-05T13:23:28.527Z,100480.53
2023-03-05T13:27:32.499Z,100472.50
2023-03-05T13:31:36.624Z,100476.94
2023-03-05T13:35:46.348Z,100465.66
2023-03-05T13:39:52.130Z,100461.47
2023-03-05T13:43:55.168Z,100454.94
2023-03-05T13:47:59.233Z,100467.00
2023-03-05T13:52:00.838Z,100460.19
2023-03-05T13:56:05.618Z,100455.16
2023-03-05T14:00:27.019Z,100444.13
2023-03-05T14:04:32.343Z,100451.47
2023-03-05T14:08:33.914Z,100445.50
2023-03-05T14:12:40.882Z,100453.25
2023-03-05T14:16:42.512Z,100451.00
2023-03-05T14:21:08.871Z,100459.06
2023-03-05T14:25:39.415Z,100446.31
2023-03-05T14:29:46.532Z,100442.25
2023-03-05T14:33:48.900Z,100437.56
2023-03-05T14:37:53.193Z,100433.28
2023-03-05T14:41:54.701Z,100441.28
2023-03-05T14:45:56.342Z,100444.09
2023-03-05T14:49:57.905Z,100444.75
2023-03-05T14:53:59.433Z,100433.16
2023-03-05T14:58:04.684Z,100421.94
2023-03-05T15:02:30.446Z,100423.25
2023-03-05T15:06:39.502Z,100415.16
2023-03-05T15:10:41.407Z,100405.91
2023-03-05T15:14:43.536Z,100417.81
2023-03-05T15:18:46.292Z,100410.19
2023-03-05T15:22:47.790Z,100405.97
2023-03-05T15:26:50.271Z,100408.00
2023-03-05T15:30:51.839Z,100399.50
2023-03-05T15:34:55.954Z,100400.84
2023-03-05T15:38:57.480Z,100389.28
2023-03-05T15:43:00.421Z,100393.88
2023-03-05T15:47:02.059Z,100395.59
2023-03-05T15:51:07.093Z,100385.09
2023-03-05T15:55:09.524Z,100395.94
2023-03-05T15:59:13.336Z,100395.00
2023-03-05T16:03:17.630Z,100392.34
2023-03-05T16:07:19.822Z,100395.38
2023-03-05T16:11:25.721Z,100387.81
2023-03-05T16:15:27.408Z,100380.09
2023-03-05T16:19:30.463Z,100382.38
2023-03-05T16:23:32.048Z,100381.47
2023-03-05T16:27:33.997Z,100378.41
2023-03-05T16:31:39.155Z,100387.75
2023-03-05T16:35:40.786Z,100374.59
2023-03-05T16:39:42.722Z,100392.69
2023-03-05T16:43:45.052Z,100386.50
2023-03-05T16:47:46.531Z,100374.25
2023-03-05T16:51:48.604Z,100381.63
2023-03-05T16:55:50.849Z,100386.91
2023-03-05T16:59:57.406Z,100383.06
2023-03-05T17:03:59.861Z,100379.91
2023-03-05T17:08:04.082Z,100381.84
2023-03-05T17:12:05.737Z,100393.66
2023-03-05T17:16:09.062Z,100387.13
2023-03-05T17:20:11.092Z,100390.56
2023-03-05T17:24:12.637Z,100384.75
2023-03-05T17:28:14.813Z,100381.94
2023-03-05T17:32:16.533Z,100381.97
2023-03-05T17:36:22.131Z,100388.69
2023-03-05T17:40:24.979Z,100381.25
2023-03-05T17:44:26.523Z,100375.94
2023-03-05T17:48:28.742Z,100384.03
2023-03-05T17:52:30.406Z,100385.78
2023-03-05T17:56:32.872Z,100374.88
2023-03-05T18:00:35.522Z,100370.78
2023-03-05T18:04:37.354Z,100361.94
2023-03-05T18:08:39.321Z,100368.31
2023-03-05T18:12:41.143Z,100374.78
2023-03-05T18:16:42.696Z,100379.06
2023-03-05T18:20:44.641Z,100380.97
2023-03-05T18:24:46.073Z,100377.59
2023-03-05T18:28:50.352Z,100366.28
2023-03-05T18:32:51.836Z,100364.91
2023-03-05T18:36:54.277Z,100368.50
2023-03-05T18:40:57.420Z,100370.75
2023-03-05T18:45:00.751Z,100365.41
2023-03-05T18:49:02.306Z,100368.31
2023-03-05T18:53:03.834Z,100361.03
2023-03-05T18:57:05.407Z,100361.38
2023-03-05T19:01:07.151Z,100353.44
2023-03-05T19:05:10.333Z,100353.56
2023-03-05T19:09:20.967Z,100342.09
2023-03-05T19:13:49.002Z,100342.84
2023-03-05T19:17:50.751Z,100340.63
2023-03-05T19:21:54.297Z,100336.28
2023-03-05T19:25:56.214Z,100331.75
2023-03-05T19:29:58.099Z,100344.47
2023-03-05T19:33:59.728Z,100338.63
2023-03-05T19:38:01.234Z,100343.44
2023-03-05T19:42:03.539Z,100336.06
2023-03-05T19:46:07.572Z,100332.94
2023-03-05T19:50:09.920Z,100328.91
2023-03-05T19:54:12.338Z,100322.84
2023-03-05T19:58:13.822Z,100324.88
2023-03-05T20:02:19.347Z,100325.91
2023-03-05T20:06:22.400Z,100330.94
2023-03-05T20:10:23.977Z,100327.50
2023-03-05T20:14:25.485Z,100323.47
2023-03-05T20:18:27.563Z,100318.41
2023-03-05T20:22:29.034Z,100315.47
2023-03-05T20:26:32.943Z,100314.47
2023-03-05T20:30:34.432Z,100311.25
2023-03-05T20:34:36.002Z,100310.22
2023-03-05T20:38:37.713Z,100313.75
2023-03-05T20:42:39.201Z,100307.50
2023-03-05T20:46:49.579Z,100298.69
2023-03-05T20:50:51.855Z,100294.94
2023-03-05T20:54:53.410Z,100285.84
2023-03-05T20:58:58.106Z,100283.63
2023-03-05T21:02:59.750Z,100276.03
2023-03-05T21:07:01.246Z,100273.13
2023-03-05T21:11:08.078Z,100272.53
2023-03-05T21:15:11.731Z,100273.13
2023-03-05T21:19:13.386Z,100267.50
2023-03-05T21:23:14.887Z,100257.94
2023-03-05T21:27:16.424Z,100259.88
2023-03-05T21:31:21.463Z,100255.63
2023-03-05T21:35:23.077Z,100251.13
2023-03-05T21:39:24.603Z,100253.22
2023-03-05T21:43:26.906Z,100255.44
2023-03-05T21:47:28.382Z,100225.50
2023-03-05T21:51:38.451Z,100217.75
2023-03-05T21:55:53.994Z,100224.78
2023-03-05T21:59:56.060Z,100222.66
2023-03-05T22:03:57.577Z,100216.75
2023-03-05T22:07:59.139Z,100213.13
2023-03-05T22:12:00.956Z,100211.38
2023-03-05T22:16:02.420Z,100197.53
2023-03-05T22:20:04.763Z,100196.31
2023-03-05T22:24:06.427Z,100189.97
2023-03-05T22:28:09.285Z,100188.06
2023-03-05T22:32:10.826Z,100182.53
2023-03-05T22:36:12.770Z,100170.03
2023-03-05T22:40:18.112Z,100172.56
2023-03-05T22:44:19.568Z,100161.38
2023-03-05T22:48:21.258Z,100165.91
2023-03-05T22:52:22.718Z,100151.66
2023-03-05T22:56:24.255Z,100145.00
2023-03-05T23:00:26.747Z,100131.84
2023-03-05T23:04:47.522Z,100130.38
2023-03-05T23:08:49.040Z,100122.50
2023-03-05T23:12:52.796Z,100125.13
2023-03-05T23:16:54.384Z,100118.09
2023-03-05T23:20:56.162Z,100109.16
2023-03-05T23:24:57.674Z,100113.19
2023-03-05T23:28:59.165Z,100111.78
2023-03-05T23:33:06.868Z,100106.34
2023-03-05T23:37:08.392Z,100109.28
2023-03-05T23:41:09.928Z,100096.38
2023-03-05T23:45:14.034Z,100099.88
2023-03-05T23:49:15.549Z,100090.91
2023-03-05T23:53:23.520Z,100092.72
2023-03-05T23:57:25.229Z,100081.50
